createdAt,value
2022-09-02T00:01:07.638Z,4.05
2022-09-02T00:03:19.447Z,4.03
2022-09-02T00:05:30.540Z,5.10
2022-09-02T00:07:43.410Z,4.45
2022-09-02T00:09:53.479Z,4.97
2022-09-02T00:11:56.372Z,4.07
2022-09-02T00:13:58.438Z,3.92
2022-09-02T00:16:00.137Z,4.28
2022-09-02T00:18:02.437Z,4.13
2022-09-02T00:20:04.296Z,4.43
2022-09-02T00:22:05.870Z,4.13
2022-09-02T00:24:07.867Z,4.55
2022-09-02T00:26:09.692Z,4.57
2022-09-02T00:28:12.032Z,3.90
2022-09-02T00:30:14.548Z,4.78
2022-09-02T00:32:16.295Z,4.13
2022-09-02T00:34:17.890Z,4.60
2022-09-02T00:36:19.476Z,4.53
2022-09-02T00:38:21.079Z,4.47
2022-09-02T00:40:23.520Z,4.57
2022-09-02T00:42:25.867Z,5.13
2022-09-02T00:44:27.495Z,4.60
2022-09-02T00:46:30.325Z,4.75
2022-09-02T00:48:32.786Z,4.80
2022-09-02T00:50:36.287Z,4.90
2022-09-02T00:52:41.600Z,4.32
2022-09-02T00:55:03.675Z,4.22
2022-09-02T00:57:08.674Z,4.65
2022-09-02T00:59:12.760Z,5.68
2022-09-02T01:01:14.936Z,5.20
2022-09-02T01:03:20.262Z,5.18
2022-09-02T01:07:24.737Z,4.97
2022-09-02T01:09:26.334Z,5.13
2022-09-02T01:11:37.629Z,4.90
2022-09-02T01:13:41.259Z,4.82
2022-09-02T01:15:44.755Z,4.65
2022-09-02T01:17:48.239Z,5.32
2022-09-02T01:19:51.891Z,4.63
2022-09-02T01:21:55.049Z,4.65
2022-09-02T01:23:56.909Z,5.38
2022-09-02T01:25:58.710Z,5.63
2022-09-02T01:28:13.869Z,5.38
2022-09-02T01:30:17.615Z,6.38
2022-09-02T01:32:19.546Z,5.25
2022-09-02T01:34:21.360Z,5.20
2022-09-02T01:36:22.958Z,5.80
2022-09-02T01:38:26.093Z,6.40
2022-09-02T01:40:28.385Z,6.82
2022-09-02T01:42:30.041Z,5.50
2022-09-02T01:44:32.197Z,5.85
2022-09-02T01:46:34.403Z,5.00
2022-09-02T01:48:36.304Z,5.28
2022-09-02T01:50:41.515Z,5.93
2022-09-02T01:52:46.646Z,5.20
2022-09-02T01:54:48.599Z,4.82
2022-09-02T01:56:50.394Z,4.85
2022-09-02T01:58:52.694Z,4.90
2022-09-02T02:00:54.647Z,4.80
2022-09-02T02:02:56.718Z,4.88
2022-09-02T02:04:58.263Z,4.38
2022-09-02T02:07:00.001Z,4.75
2022-09-02T02:09:01.983Z,3.92
2022-09-02T02:11:03.663Z,4.32
2022-09-02T02:13:05.574Z,4.18
2022-09-02T02:15:12.461Z,3.63
2022-09-02T02:17:14.315Z,5.00
2022-09-02T02:19:15.849Z,5.43
2022-09-02T02:21:17.396Z,4.80
2022-09-02T02:23:18.991Z,5.45
2022-09-02T02:25:20.880Z,5.18
2022-09-02T02:27:22.515Z,7.35
2022-09-02T02:29:24.321Z,6.68
2022-09-02T02:31:26.114Z,6.55
2022-09-02T02:33:30.475Z,6.93
2022-09-02T02:35:37.649Z,6.38
2022-09-02T02:37:39.254Z,6.70
2022-09-02T02:39:42.000Z,6.57
2022-09-02T02:41:44.921Z,6.78
2022-09-02T02:43:47.822Z,6.37
2022-09-02T02:45:49.319Z,5.97
2022-09-02T02:47:51.347Z,5.43
2022-09-02T02:49:53.403Z,6.28
2022-09-02T02:51:57.159Z,6.00
2022-09-02T02:56:05.727Z,5.60
2022-09-02T02:58:09.930Z,5.00
2022-09-02T03:00:22.382Z,5.50
2022-09-02T03:02:26.442Z,4.80
2022-09-02T03:06:33.341Z,5.20
2022-09-02T03:08:38.806Z,5.00
2022-09-02T03:10:43.081Z,5.00
2022-09-02T03:12:49.015Z,4.72
2022-09-02T03:14:53.240Z,4.53
2022-09-02T03:16:55.515Z,5.00
2022-09-02T03:18:57.143Z,4.82
2022-09-02T03:20:59.698Z,5.15
2022-09-02T03:23:01.509Z,4.82
2022-09-02T03:25:03.230Z,5.15
2022-09-02T03:27:04.962Z,4.30
2022-09-02T03:29:06.571Z,4.47
2022-09-02T03:31:08.273Z,4.95
2022-09-02T03:33:09.914Z,5.30
2022-09-02T03:35:13.783Z,4.25
2022-09-02T03:37:16.074Z,3.97
2022-09-02T03:39:17.835Z,3.58
2022-09-02T03:41:20.130Z,4.45
2022-09-02T03:43:22.006Z,3.72
2022-09-02T03:45:23.930Z,4.35
2022-09-02T03:47:25.714Z,4.40
2022-09-02T03:49:30.292Z,3.50
2022-09-02T03:51:33.223Z,3.55
2022-09-02T03:53:35.073Z,3.92
2022-09-02T03:55:37.180Z,4.32
2022-09-02T03:57:38.694Z,4.05
2022-09-02T03:59:40.215Z,4.30
2022-09-02T04:01:42.141Z,4.38
2022-09-02T04:03:43.765Z,4.35
2022-09-02T04:05:49.587Z,4.50
2022-09-02T04:07:52.524Z,4.43
2022-09-02T04:09:55.678Z,3.53
2022-09-02T04:11:57.161Z,3.23
2022-09-02T04:13:58.825Z,4.00
2022-09-02T04:16:05.666Z,4.35
2022-09-02T04:18:12.152Z,3.85
2022-09-02T04:20:14.080Z,4.65
2022-09-02T04:22:15.641Z,4.35
2022-09-02T04:24:17.222Z,4.05
2022-09-02T04:26:19.623Z,4.50
2022-09-02T04:28:21.319Z,4.47
2022-09-02T04:30:25.353Z,4.90
2022-09-02T04:34:28.709Z,4.32
2022-09-02T04:36:31.101Z,4.68
2022-09-02T04:38:33.038Z,4.22
2022-09-02T04:40:34.577Z,4.20
2022-09-02T04:42:36.128Z,5.25
2022-09-02T04:44:37.770Z,4.30
2022-09-02T04:46:39.636Z,4.22
2022-09-02T04:48:41.375Z,4.75
2022-09-02T04:50:43.038Z,4.45
2022-09-02T04:52:44.743Z,4.93
2022-09-02T04:54:46.537Z,4.30
2022-09-02T04:56:48.057Z,4.38
2022-09-02T04:58:53.446Z,4.47
2022-09-02T05:00:55.025Z,3.85
2022-09-02T05:02:56.818Z,4.57
2022-09-02T05:04:58.852Z,4.72
2022-09-02T05:07:03.754Z,3.80
2022-09-02T05:09:05.743Z,4.65
2022-09-02T05:11:08.469Z,4.18
2022-09-02T05:13:10.122Z,4.65
2022-09-02T05:15:12.477Z,4.18
2022-09-02T05:17:14.398Z,4.25
2022-09-02T05:19:15.922Z,4.40
2022-09-02T05:21:17.533Z,4.78
2022-09-02T05:23:19.308Z,4.35
2022-09-02T05:25:21.730Z,4.57
2022-09-02T05:27:23.698Z,4.20
2022-09-02T05:29:28.737Z,3.65
2022-09-02T05:31:30.420Z,4.28
2022-09-02T05:33:32.854Z,4.03
2022-09-02T05:35:35.031Z,3.97
2022-09-02T05:37:42.215Z,4.10
2022-09-02T05:39:44.110Z,4.20
2022-09-02T05:41:45.704Z,4.72
2022-09-02T05:43:48.062Z,4.18
2022-09-02T05:45:49.772Z,3.92
2022-09-02T05:47:51.339Z,3.70
2022-09-02T05:49:52.988Z,4.63
2022-09-02T05:51:56.584Z,4.10
2022-09-02T05:54:04.197Z,3.72
2022-09-02T05:56:05.950Z,4.00
2022-09-02T05:58:18.035Z,5.10
2022-09-02T06:00:34.253Z,4.00
2022-09-02T06:02:50.826Z,4.47
2022-09-02T06:04:59.002Z,4.38
2022-09-02T06:07:14.163Z,4.47
2022-09-02T06:09:32.243Z,4.63
2022-09-02T06:11:52.304Z,4.57
2022-09-02T06:14:09.683Z,3.95
2022-09-02T06:16:27.849Z,3.70
2022-09-02T06:18:45.563Z,3.60
2022-09-02T06:21:00.721Z,4.10
2022-09-02T06:23:05.222Z,3.95
2022-09-02T06:25:07.181Z,3.22
2022-09-02T06:27:08.890Z,3.97
2022-09-02T06:29:10.794Z,3.72
2022-09-02T06:31:15.207Z,3.33
2022-09-02T06:33:16.951Z,4.13
2022-09-02T06:35:18.804Z,4.07
2022-09-02T06:37:20.569Z,3.70
2022-09-02T06:39:23.677Z,4.28
2022-09-02T06:41:29.843Z,3.57
2022-09-02T06:43:42.272Z,3.40
2022-09-02T06:45:44.937Z,3.65
2022-09-02T06:47:47.047Z,3.70
2022-09-02T06:49:49.096Z,4.28
2022-09-02T06:51:51.817Z,3.80
2022-09-02T06:53:53.835Z,2.88
2022-09-02T06:55:55.426Z,3.22
2022-09-02T06:57:57.061Z,3.10
2022-09-02T07:00:00.008Z,2.75
2022-09-02T07:02:04.610Z,2.50
2022-09-02T07:04:24.735Z,3.40
2022-09-02T07:06:27.903Z,2.90
2022-09-02T07:08:30.258Z,2.42
2022-09-02T07:10:32.195Z,3.10
2022-09-02T07:12:35.016Z,2.80
2022-09-02T07:14:40.798Z,3.30
2022-09-02T07:16:44.359Z,3.30
2022-09-02T07:18:46.380Z,3.50
2022-09-02T07:20:48.224Z,2.60
2022-09-02T07:24:57.438Z,2.25
2022-09-02T07:26:59.029Z,2.90
2022-09-02T07:29:01.014Z,2.97
2022-09-02T07:31:02.887Z,2.60
2022-09-02T07:33:05.801Z,2.95
2022-09-02T07:35:07.831Z,3.53
2022-09-02T07:37:11.041Z,3.65
2022-09-02T07:39:13.631Z,3.70
2022-09-02T07:41:15.390Z,3.08
2022-09-02T07:43:16.956Z,2.65
2022-09-02T07:45:19.108Z,2.95
2022-09-02T07:47:21.130Z,3.00
2022-09-02T07:49:24.180Z,3.67
2022-09-02T07:51:30.922Z,3.65
2022-09-02T07:53:32.892Z,2.33
2022-09-02T07:55:36.409Z,3.17
2022-09-02T07:57:38.135Z,2.35
2022-09-02T07:59:39.769Z,3.58
2022-09-02T08:03:50.425Z,2.95
2022-09-02T08:05:52.710Z,2.80
2022-09-02T08:07:54.475Z,2.50
2022-09-02T08:09:56.049Z,2.55
2022-09-02T08:11:57.803Z,3.00
2022-09-02T08:14:00.608Z,2.22
2022-09-02T08:16:02.823Z,3.00
2022-09-02T08:18:05.701Z,2.50
2022-09-02T08:20:12.234Z,2.38
2022-09-02T08:22:15.096Z,3.10
2022-09-02T08:24:16.574Z,3.35
2022-09-02T08:26:19.058Z,2.78
2022-09-02T08:28:20.624Z,2.50
2022-09-02T08:30:22.342Z,2.95
2022-09-02T08:32:23.838Z,2.47
2022-09-02T08:34:25.573Z,2.15
2022-09-02T08:36:27.342Z,2.78
2022-09-02T08:38:28.861Z,2.25
2022-09-02T08:40:37.414Z,2.47
2022-09-02T08:42:47.258Z,2.63
2022-09-02T08:44:55.347Z,2.50
2022-09-02T08:47:01.275Z,2.88
2022-09-02T08:49:17.074Z,2.60
2022-09-02T08:51:37.336Z,2.78
2022-09-02T08:53:46.676Z,3.08
2022-09-02T08:55:54.172Z,2.58
2022-09-02T08:57:56.727Z,2.65
2022-09-02T09:00:00.986Z,2.55
2022-09-02T09:02:17.814Z,3.10
2022-09-02T09:04:22.548Z,2.95
2022-09-02T09:06:31.404Z,2.88
2022-09-02T09:08:47.210Z,2.72
2022-09-02T09:10:55.130Z,3.30
2022-09-02T09:13:00.060Z,2.38
2022-09-02T09:15:14.790Z,2.72
2022-09-02T09:17:22.919Z,2.40
2022-09-02T09:19:37.464Z,3.03
2022-09-02T09:21:45.182Z,2.35
2022-09-02T09:23:49.551Z,2.92
2022-09-02T09:25:56.354Z,2.28
2022-09-02T09:28:01.193Z,2.40
2022-09-02T09:30:03.347Z,2.35
2022-09-02T09:32:08.667Z,2.63
2022-09-02T09:34:12.834Z,4.35
2022-09-02T09:36:17.343Z,2.70
2022-09-02T09:38:30.064Z,2.78
2022-09-02T09:40:33.241Z,3.88
2022-09-02T09:42:36.439Z,3.05
2022-09-02T09:44:40.090Z,2.60
2022-09-02T09:46:41.637Z,2.28
2022-09-02T09:48:48.694Z,2.72
2022-09-02T09:50:57.215Z,2.97
2022-09-02T09:53:14.960Z,2.85
2022-09-02T09:55:25.268Z,2.95
2022-09-02T09:57:35.546Z,2.72
2022-09-02T09:59:47.594Z,3.15
2022-09-02T10:01:52.540Z,3.42
2022-09-02T10:03:56.947Z,3.83
2022-09-02T10:05:59.632Z,3.00
2022-09-02T10:08:02.012Z,3.33
2022-09-02T10:10:15.623Z,3.42
2022-09-02T10:14:21.148Z,3.35
2022-09-02T10:16:25.846Z,3.95
2022-09-02T10:18:30.157Z,3.67
2022-09-02T10:21:04.891Z,3.53
2022-09-02T10:23:21.198Z,4.03
2022-09-02T10:25:25.968Z,3.78
2022-09-02T10:27:40.868Z,3.45
2022-09-02T10:30:08.428Z,3.63
2022-09-02T10:32:19.977Z,4.75
2022-09-02T10:34:24.344Z,3.30
2022-09-02T10:36:28.679Z,3.60
2022-09-02T10:38:32.915Z,4.07
2022-09-02T10:40:44.322Z,2.85
2022-09-02T10:42:46.249Z,3.28
2022-09-02T10:44:58.991Z,3.72
2022-09-02T10:47:01.611Z,3.97
2022-09-02T10:49:24.477Z,4.97
2022-09-02T10:52:01.678Z,3.88
2022-09-02T10:54:29.596Z,3.65
2022-09-02T10:56:36.256Z,3.33
2022-09-02T10:58:41.811Z,3.65
2022-09-02T11:00:44.771Z,3.67
2022-09-02T11:03:12.498Z,3.33
2022-09-02T11:05:17.046Z,3.83
2022-09-02T11:07:25.118Z,3.42
2022-09-02T11:09:30.146Z,3.83
2022-09-02T11:11:31.698Z,3.20
2022-09-02T11:13:36.573Z,3.92
2022-09-02T11:15:41.639Z,3.03
2022-09-02T11:17:43.417Z,3.13
2022-09-02T11:20:04.086Z,2.50
2022-09-02T11:22:08.355Z,2.95
2022-09-02T11:24:09.911Z,2.90
2022-09-02T11:26:20.044Z,4.38
2022-09-02T11:28:39.838Z,3.25
2022-09-02T11:33:09.885Z,3.55
2022-09-02T11:35:14.839Z,3.03
2022-09-02T11:37:25.276Z,3.20
2022-09-02T11:39:52.549Z,2.95
2022-09-02T11:42:12.865Z,2.60
2022-09-02T11:44:28.202Z,4.85
2022-09-02T11:46:34.035Z,2.53
2022-09-02T11:48:36.192Z,2.78
2022-09-02T11:50:40.624Z,2.38
2022-09-02T11:52:42.421Z,3.80
2022-09-02T11:54:46.339Z,3.47
2022-09-02T11:56:56.820Z,3.42
2022-09-02T11:58:58.514Z,2.92
2022-09-02T12:01:05.981Z,4.25
2022-09-02T12:03:22.260Z,3.45
2022-09-02T12:05:32.362Z,3.58
2022-09-02T12:07:46.892Z,3.30
2022-09-02T12:09:51.584Z,2.17
2022-09-02T12:11:56.239Z,2.58
2022-09-02T12:14:02.902Z,2.72
2022-09-02T12:16:25.354Z,3.60
2022-09-02T12:18:32.200Z,3.42
2022-09-02T12:20:42.780Z,2.67
2022-09-02T12:22:49.978Z,2.63
2022-09-02T12:24:53.923Z,2.90
2022-09-02T12:26:59.834Z,2.80
2022-09-02T12:29:26.333Z,2.65
2022-09-02T12:31:47.028Z,3.33
2022-09-02T12:33:52.956Z,2.05
2022-09-02T12:35:57.604Z,2.28
2022-09-02T12:38:02.271Z,2.30
2022-09-02T12:40:13.851Z,2.45
2022-09-02T12:42:21.631Z,2.25
2022-09-02T12:44:23.532Z,2.28
2022-09-02T12:46:31.625Z,2.53
2022-09-02T12:48:40.723Z,2.70
2022-09-02T12:50:43.901Z,2.65
2022-09-02T12:52:47.347Z,2.90
2022-09-02T12:54:49.354Z,2.83
2022-09-02T12:56:51.301Z,2.40
2022-09-02T12:59:02.340Z,2.65
2022-09-02T13:01:14.797Z,3.30
2022-09-02T13:03:25.350Z,3.35
2022-09-02T13:05:26.997Z,3.55
2022-09-02T13:07:31.416Z,3.72
2022-09-02T13:09:42.567Z,3.55
2022-09-02T13:12:03.187Z,3.53
2022-09-02T13:14:37.269Z,3.65
2022-09-02T13:16:38.905Z,3.05
2022-09-02T13:18:50.894Z,3.80
2022-09-02T13:21:10.984Z,3.92
2022-09-02T13:23:31.645Z,4.10
2022-09-02T13:25:47.237Z,3.13
2022-09-02T13:27:55.160Z,3.42
2022-09-02T13:30:08.150Z,3.00
2022-09-02T13:32:09.622Z,3.63
2022-09-02T13:34:12.650Z,3.03
2022-09-02T13:36:23.147Z,3.17
2022-09-02T13:38:25.865Z,3.88
2022-09-02T13:40:33.799Z,3.15
2022-09-02T13:42:35.323Z,3.10
2022-09-02T13:44:38.803Z,3.78
2022-09-02T13:46:48.694Z,3.45
2022-09-02T13:48:50.143Z,4.28
2022-09-02T13:50:52.819Z,3.25
2022-09-02T13:55:18.256Z,3.58
2022-09-02T13:57:25.833Z,3.33
2022-09-02T13:59:41.155Z,2.90
2022-09-02T14:01:42.766Z,3.65
2022-09-02T14:03:49.004Z,2.80
2022-09-02T14:05:52.600Z,3.17
2022-09-02T14:07:55.921Z,3.42
2022-09-02T14:09:58.847Z,3.03
2022-09-02T14:12:00.773Z,2.93
2022-09-02T14:14:02.981Z,2.65
2022-09-02T14:16:23.456Z,3.13
2022-09-02T14:18:25.561Z,3.58
2022-09-02T14:20:27.045Z,3.30
2022-09-02T14:22:29.709Z,2.67
2022-09-02T14:24:38.660Z,3.40
2022-09-02T14:26:44.557Z,3.00
2022-09-02T14:28:50.971Z,3.85
2022-09-02T14:31:18.953Z,3.50
2022-09-02T14:33:24.430Z,3.88
2022-09-02T14:35:27.890Z,3.53
2022-09-02T14:37:29.490Z,3.72
2022-09-02T14:39:31.168Z,3.63
2022-09-02T14:41:34.369Z,3.33
2022-09-02T14:43:42.405Z,3.50
2022-09-02T14:45:46.440Z,2.78
2022-09-02T14:47:48.272Z,2.70
2022-09-02T14:49:53.105Z,2.72
2022-09-02T14:53:55.895Z,3.33
2022-09-02T14:55:57.683Z,2.95
2022-09-02T14:58:02.902Z,3.03
2022-09-02T15:00:08.806Z,3.90
2022-09-02T15:02:20.907Z,3.40
2022-09-02T15:04:22.509Z,3.28
2022-09-02T15:06:23.986Z,3.42
2022-09-02T15:08:25.810Z,3.47
2022-09-02T15:10:27.959Z,4.10
2022-09-02T15:12:33.421Z,4.00
2022-09-02T15:14:38.278Z,3.88
2022-09-02T15:16:48.443Z,3.35
2022-09-02T15:18:55.631Z,2.92
2022-09-02T15:21:00.243Z,2.80
2022-09-02T15:23:07.854Z,3.25
2022-09-02T15:25:16.349Z,3.45
2022-09-02T15:27:24.828Z,2.35
2022-09-02T15:29:33.808Z,3.00
2022-09-02T15:31:42.748Z,2.70
2022-09-02T15:33:53.103Z,2.70
2022-09-02T15:36:09.211Z,2.97
2022-09-02T15:38:15.273Z,2.47
2022-09-02T15:40:18.197Z,2.90
2022-09-02T15:42:20.181Z,2.80
2022-09-02T15:44:25.779Z,2.88
2022-09-02T15:46:29.010Z,2.90
2022-09-02T15:48:32.370Z,2.65
2022-09-02T15:50:33.988Z,2.30
2022-09-02T15:52:35.935Z,2.13
2022-09-02T15:54:37.771Z,1.90
2022-09-02T15:56:41.418Z,2.05
2022-09-02T15:58:42.939Z,2.33
2022-09-02T16:00:44.742Z,1.88
2022-09-02T16:02:47.566Z,2.42
2022-09-02T16:04:49.169Z,2.57
2022-09-02T16:06:52.402Z,2.10
2022-09-02T16:08:54.278Z,1.98
2022-09-02T16:10:56.182Z,2.08
2022-09-02T16:13:00.659Z,2.22
2022-09-02T16:15:02.270Z,2.42
2022-09-02T16:17:03.926Z,1.17
2022-09-02T16:19:06.686Z,1.70
2022-09-02T16:21:10.338Z,1.65
2022-09-02T16:25:13.423Z,1.60
2022-09-02T16:27:14.927Z,1.38
2022-09-02T16:29:17.730Z,1.33
2022-09-02T16:31:20.095Z,1.17
2022-09-02T16:33:22.628Z,1.47
2022-09-02T16:35:24.435Z,1.90
2022-09-02T16:37:25.999Z,1.10
2022-09-02T16:39:27.930Z,1.25
2022-09-02T16:41:36.530Z,1.80
2022-09-02T16:43:38.094Z,1.70
2022-09-02T16:45:39.902Z,1.88
2022-09-02T16:47:41.451Z,1.15
2022-09-02T16:49:43.941Z,1.33
2022-09-02T16:51:46.416Z,1.38
2022-09-02T16:53:52.388Z,1.13
2022-09-02T16:55:53.858Z,1.40
2022-09-02T16:57:55.691Z,1.58
2022-09-02T16:59:57.765Z,1.40
2022-09-02T17:01:59.498Z,1.42
2022-09-02T17:04:01.474Z,1.63
2022-09-02T17:06:03.128Z,1.15
2022-09-02T17:08:05.574Z,1.27
2022-09-02T17:10:07.483Z,1.42
2022-09-02T17:12:08.939Z,1.85
2022-09-02T17:14:12.298Z,1.20
2022-09-02T17:16:17.346Z,1.55
2022-09-02T17:18:18.805Z,1.20
2022-09-02T17:20:20.372Z,1.23
2022-09-02T17:22:21.918Z,1.52
2022-09-02T17:24:24.901Z,1.17
2022-09-02T17:26:27.499Z,1.17
2022-09-02T17:28:29.030Z,1.60
2022-09-02T17:30:31.065Z,1.50
2022-09-02T17:32:32.638Z,1.38
2022-09-02T17:34:35.205Z,1.52
2022-09-02T17:36:38.068Z,1.55
2022-09-02T17:38:39.743Z,1.85
2022-09-02T17:40:59.784Z,1.23
2022-09-02T17:43:02.913Z,1.38
2022-09-02T17:45:04.730Z,1.58
2022-09-02T17:47:08.261Z,1.30
2022-09-02T17:49:17.923Z,1.48
2022-09-02T17:51:21.068Z,1.77
2022-09-02T17:53:24.899Z,1.77
2022-09-02T17:55:26.614Z,1.60
2022-09-02T17:57:33.460Z,1.90
2022-09-02T17:59:35.532Z,2.00
2022-09-02T18:01:41.020Z,1.55
2022-09-02T18:04:06.345Z,1.98
2022-09-02T18:06:13.907Z,1.73
2022-09-02T18:08:21.351Z,1.60
2022-09-02T18:10:23.410Z,1.58
2022-09-02T18:12:26.754Z,1.40
2022-09-02T18:14:35.034Z,1.58
2022-09-02T18:16:39.498Z,2.63
2022-09-02T18:18:46.144Z,1.75
2022-09-02T18:20:52.069Z,1.48
2022-09-02T18:23:05.536Z,1.88
2022-09-02T18:25:21.017Z,1.60
2022-09-02T18:27:25.388Z,1.65
2022-09-02T18:29:36.233Z,1.70
2022-09-02T18:31:55.453Z,2.00
2022-09-02T18:34:04.469Z,1.98
2022-09-02T18:36:15.988Z,1.80
2022-09-02T18:38:39.759Z,1.95
2022-09-02T18:40:48.901Z,1.77
2022-09-02T18:42:58.117Z,2.00
2022-09-02T18:45:08.220Z,2.28
2022-09-02T18:47:13.259Z,2.05
2022-09-02T18:49:15.166Z,1.92
2022-09-02T18:51:24.429Z,2.00
2022-09-02T18:53:28.616Z,1.95
2022-09-02T18:55:35.028Z,2.35
2022-09-02T18:57:56.916Z,2.25
2022-09-02T19:00:09.439Z,2.15
2022-09-02T19:02:27.148Z,2.67
2022-09-02T19:04:32.193Z,2.05
2022-09-02T19:06:37.982Z,2.35
2022-09-02T19:08:41.316Z,2.92
2022-09-02T19:10:42.815Z,2.47
2022-09-02T19:12:44.647Z,2.65
2022-09-02T19:14:46.966Z,2.47
2022-09-02T19:16:50.040Z,2.20
2022-09-02T19:18:51.931Z,2.70
2022-09-02T19:20:54.706Z,2.75
2022-09-02T19:22:58.623Z,3.05
2022-09-02T19:25:20.755Z,2.60
2022-09-02T19:27:23.815Z,2.47
2022-09-02T19:29:25.603Z,2.60
2022-09-02T19:31:29.695Z,2.47
2022-09-02T19:33:32.530Z,2.92
2022-09-02T19:35:35.662Z,2.90
2022-09-02T19:37:44.704Z,2.45
2022-09-02T19:39:51.356Z,2.53
2022-09-02T19:41:54.156Z,2.60
2022-09-02T19:43:55.930Z,2.38
2022-09-02T19:45:57.630Z,2.55
2022-09-02T19:48:08.407Z,4.43
2022-09-02T19:50:11.295Z,2.47
2022-09-02T19:52:12.939Z,2.45
2022-09-02T19:54:15.184Z,2.38
2022-09-02T19:56:19.049Z,2.85
2022-09-02T20:00:23.122Z,2.40
2022-09-02T20:02:24.793Z,2.70
2022-09-02T20:04:29.764Z,2.33
2022-09-02T20:06:33.114Z,2.95
2022-09-02T20:08:34.819Z,3.07
2022-09-02T20:10:37.605Z,3.00
2022-09-02T20:12:39.286Z,2.63
2022-09-02T20:14:41.047Z,3.17
2022-09-02T20:16:42.698Z,3.15
2022-09-02T20:18:48.831Z,3.20
2022-09-02T20:20:52.197Z,3.70
2022-09-02T20:22:57.611Z,3.10
2022-09-02T20:24:59.794Z,3.45
2022-09-02T20:27:06.011Z,3.55
2022-09-02T20:29:26.051Z,3.45
2022-09-02T20:31:43.548Z,3.13
2022-09-02T20:33:49.508Z,2.92
2022-09-02T20:36:32.778Z,3.78
2022-09-02T20:38:34.563Z,3.40
2022-09-02T20:40:55.681Z,2.95
2022-09-02T20:43:05.152Z,2.67
2022-09-02T20:45:25.582Z,3.20
2022-09-02T20:47:34.403Z,3.42
2022-09-02T20:49:47.967Z,3.03
2022-09-02T20:52:00.817Z,2.95
2022-09-02T20:54:21.862Z,2.95
2022-09-02T20:56:34.886Z,2.85
2022-09-02T20:58:38.976Z,2.90
2022-09-02T21:00:44.730Z,2.75
2022-09-02T21:02:57.874Z,2.95
2022-09-02T21:05:02.241Z,3.67
2022-09-02T21:07:11.069Z,2.78
2022-09-02T21:09:35.166Z,2.40
2022-09-02T21:11:44.668Z,2.47
2022-09-02T21:13:46.237Z,2.95
2022-09-02T21:15:55.793Z,2.47
2022-09-02T21:18:16.592Z,2.65
2022-09-02T21:20:22.813Z,2.60
2022-09-02T21:22:24.658Z,2.45
2022-09-02T21:24:28.725Z,2.97
2022-09-02T21:26:41.935Z,3.83
2022-09-02T21:29:11.716Z,2.70
2022-09-02T21:31:30.598Z,2.63
2022-09-02T21:33:41.305Z,2.67
2022-09-02T21:35:54.318Z,3.38
2022-09-02T21:38:04.842Z,2.92
2022-09-02T21:40:17.306Z,3.08
2022-09-02T21:42:36.697Z,3.28
2022-09-02T21:44:44.380Z,3.58
2022-09-02T21:46:58.756Z,3.13
2022-09-02T21:49:41.887Z,4.13
2022-09-02T21:51:51.114Z,3.67
2022-09-02T21:54:05.345Z,3.45
2022-09-02T21:56:09.863Z,3.60
2022-09-02T21:58:23.459Z,4.45
2022-09-02T22:00:25.373Z,3.53
2022-09-02T22:02:30.277Z,3.28
2022-09-02T22:04:32.028Z,2.95
2022-09-02T22:06:41.645Z,4.20
2022-09-02T22:08:58.605Z,4.18
2022-09-02T22:11:00.586Z,4.10
2022-09-02T22:13:03.534Z,3.38
2022-09-02T22:15:21.081Z,4.20
2022-09-02T22:17:35.422Z,4.85
2022-09-02T22:21:53.465Z,3.60
2022-09-02T22:26:08.362Z,3.20
2022-09-02T22:28:14.492Z,3.00
2022-09-02T22:30:17.350Z,3.90
2022-09-02T22:32:24.200Z,3.70
2022-09-02T22:34:27.235Z,3.20
2022-09-02T22:36:41.170Z,10.77
2022-09-02T22:38:47.132Z,5.88
2022-09-02T22:40:51.727Z,4.05
2022-09-02T22:42:57.208Z,3.47
2022-09-02T22:45:17.452Z,4.40
2022-09-02T22:47:38.493Z,3.97
2022-09-02T22:50:13.491Z,3.40
2022-09-02T22:52:49.153Z,5.13
2022-09-02T22:54:52.307Z,4.57
2022-09-02T22:57:16.982Z,4.45
2022-09-02T22:59:37.306Z,4.18
2022-09-02T23:01:39.070Z,5.25
2022-09-02T23:03:52.485Z,5.00
2022-09-02T23:06:09.034Z,6.57
2022-09-02T23:08:13.224Z,4.72
2022-09-02T23:10:19.469Z,4.15
2022-09-02T23:12:23.599Z,3.47
2022-09-02T23:14:26.599Z,3.58
2022-09-02T23:16:46.217Z,4.40
2022-09-02T23:18:57.279Z,4.30
2022-09-02T23:21:05.061Z,4.00
2022-09-02T23:23:14.157Z,3.65
2022-09-02T23:25:17.082Z,4.85
2022-09-02T23:27:27.055Z,4.82
2022-09-02T23:29:29.585Z,5.00
2022-09-02T23:31:40.614Z,5.35
2022-09-02T23:34:00.674Z,3.90
2022-09-02T23:36:02.553Z,3.08
2022-09-02T23:38:28.311Z,3.88
2022-09-02T23:40:32.777Z,4.80
2022-09-02T23:42:35.100Z,5.60
2022-09-02T23:44:36.677Z,3.60
2022-09-02T23:46:52.420Z,3.33
2022-09-02T23:48:56.958Z,4.78
2022-09-02T23:51:01.440Z,3.30
2022-09-02T23:53:03.024Z,2.90
2022-09-02T23:55:39.852Z,2.72
2022-09-02T23:57:56.986Z,3.17
